Time;durP1;ratioP1;P1;durP2;ratioP2;P2;SDS_P1;SDS_P2;PMS_P1;PMS_P2;Temp;Humidity;BMP_temperature;BMP_pressure;BME280_temperature;BME280_humidity;BME280_pressure;Samples;Min_cycle;Max_cycle;Signal;HPM_P1;HPM_P2
2021/10/06 00:01:44;;;;;;;15.72;6.65;;;;;;;13.38;68.44;102214.16;1811625;77;21392;-71
2021/10/06 00:04:11;;;;;;;15.63;6.70;;;;;;;13.38;67.56;102221.80;1787321;78;21081;-70
2021/10/06 00:06:41;;;;;;;22.30;7.00;;;;;;;13.37;66.00;102229.43;1812597;77;21665;-69
2021/10/06 00:09:10;;;;;;;26.68;6.83;;;;;;;13.35;66.36;102216.46;1772192;79;21042;-68
2021/10/06 00:11:39;;;;;;;14.00;6.47;;;;;;;13.32;65.30;102209.36;1778123;78;21559;-69
2021/10/06 00:14:08;;;;;;;11.03;6.30;;;;;;;13.30;65.47;102222.42;1775631;78;21063;-70
2021/10/06 00:16:35;;;;;;;36.13;6.92;;;;;;;13.27;64.78;102219.36;1817833;77;21055;-69
2021/10/06 00:19:02;;;;;;;31.87;7.97;;;;;;;13.28;65.95;102259.28;1777139;78;21020;-69
2021/10/06 00:21:29;;;;;;;24.98;7.05;;;;;;;13.27;65.77;102218.45;1784144;78;21367;-69
2021/10/06 00:23:56;;;;;;;17.12;6.42;;;;;;;13.28;66.24;102232.34;1823056;77;21114;-68
2021/10/06 00:26:29;;;;;;;15.80;6.33;;;;;;;13.27;67.26;102217.11;1819727;77;21133;-70
2021/10/06 00:28:56;;;;;;;16.75;6.50;;;;;;;13.24;68.57;102227.95;1781790;80;21051;-70
2021/10/06 00:31:23;;;;;;;24.40;6.87;;;;;;;13.23;68.17;102229.75;1820346;77;21090;-69
2021/10/06 00:33:59;;;;;;;25.23;7.67;;;;;;;13.20;68.67;102232.99;1820586;78;20986;-68
2021/10/06 00:36:26;;;;;;;28.55;7.58;;;;;;;13.17;68.74;102218.67;1807191;77;21062;-69
2021/10/06 00:38:58;;;;;;;17.48;6.60;;;;;;;13.16;70.15;102214.22;1816085;77;20904;-69
2021/10/06 00:41:28;;;;;;;16.93;6.00;;;;;;;13.11;68.99;102214.75;1794870;78;21508;-69
2021/10/06 00:43:58;;;;;;;15.75;5.47;;;;;;;13.11;67.60;102230.91;1815698;77;21420;-69
2021/10/06 00:46:27;;;;;;;20.52;5.30;;;;;;;13.08;62.31;102225.59;1814666;77;20975;-69
2021/10/06 00:48:54;;;;;;;10.95;5.03;;;;;;;13.10;59.29;102221.54;1818522;77;21015;-68
2021/10/06 00:51:24;;;;;;;20.88;5.25;;;;;;;13.13;58.15;102212.91;1819002;77;21575;-69
2021/10/06 00:53:51;;;;;;;19.87;5.33;;;;;;;13.12;57.21;102217.88;1778008;78;20988;-70
2021/10/06 00:56:18;;;;;;;15.20;4.95;;;;;;;13.13;57.78;102241.19;1736814;80;21105;-67
2021/10/06 00:58:45;;;;;;;14.00;5.60;;;;;;;13.12;59.43;102208.45;1783304;78;21635;-70
2021/10/06 01:01:13;;;;;;;14.13;5.30;;;;;;;13.14;61.62;102209.30;1781481;79;21058;-69
2021/10/06 01:03:40;;;;;;;10.38;4.95;;;;;;;13.15;61.51;102215.14;1814063;77;21127;-68
2021/10/06 01:06:12;;;;;;;10.45;4.70;;;;;;;13.12;61.06;102219.22;1806278;77;21078;-68
2021/10/06 01:08:41;;;;;;;11.43;4.92;;;;;;;13.09;60.42;102215.73;1816647;77;21063;-68
2021/10/06 01:11:11;;;;;;;14.00;4.55;;;;;;;13.04;60.63;102214.47;1817036;77;20975;-69
2021/10/06 01:13:41;;;;;;;26.65;5.17;;;;;;;13.02;60.84;102222.57;1800190;77;21090;-69
2021/10/06 01:16:10;;;;;;;15.90;4.30;;;;;;;12.97;60.05;102247.84;1813702;78;21778;-69
2021/10/06 01:18:37;;;;;;;11.57;4.83;;;;;;;12.95;60.45;102225.45;1811677;77;21050;-70
2021/10/06 01:21:17;;;;;;;10.70;4.55;;;;;;;12.95;60.17;102212.00;1811426;77;21024;-69
2021/10/06 01:23:48;;;;;;;15.32;5.33;;;;;;;12.90;61.20;102220.16;1796545;77;20992;-69
2021/10/06 01:26:21;;;;;;;9.65;4.50;;;;;;;12.88;60.94;102192.39;1814597;78;21094;-69
2021/10/06 01:28:50;;;;;;;25.72;4.80;;;;;;;12.86;61.85;102203.17;1820603;77;21127;-67
2021/10/06 01:31:27;;;;;;;13.00;4.40;;;;;;;12.85;61.95;102209.95;1815999;77;21063;-70
2021/10/06 01:33:54;;;;;;;14.63;4.28;;;;;;;12.84;61.02;102182.14;1808732;77;21045;-70
2021/10/06 01:36:33;;;;;;;26.00;5.42;;;;;;;12.82;61.75;102212.24;1812686;77;21505;-71
2021/10/06 01:39:05;;;;;;;10.53;5.08;;;;;;;12.79;62.65;102197.51;1814202;77;21501;-69
2021/10/06 01:41:35;;;;;;;16.42;4.75;;;;;;;12.75;62.51;102197.16;1809596;77;21543;-70
2021/10/06 01:44:12;;;;;;;11.50;4.70;;;;;;;12.72;62.55;102191.84;1807958;77;21012;-70
2021/10/06 01:46:44;;;;;;;17.50;5.00;;;;;;;12.73;63.16;102212.45;1820009;77;21067;-83
2021/10/06 01:49:11;;;;;;;12.45;4.80;;;;;;;12.68;62.56;102198.17;1814172;77;21717;-83
2021/10/06 01:51:42;;;;;;;15.43;5.20;;;;;;;12.67;63.33;102224.66;1812113;77;20971;-70
2021/10/06 01:54:12;;;;;;;17.25;5.85;;;;;;;12.64;63.53;102216.66;1811308;77;21102;-69
2021/10/06 01:56:48;;;;;;;17.85;6.12;;;;;;;12.60;64.95;102237.37;1807232;77;21027;-69
2021/10/06 01:59:15;;;;;;;13.08;6.12;;;;;;;12.58;66.48;102222.59;1784834;78;21096;-68
2021/10/06 02:01:43;;;;;;;12.78;5.53;;;;;;;12.54;67.15;102206.09;1754967;81;21075;-68
2021/10/06 02:04:11;;;;;;;20.10;6.17;;;;;;;12.50;67.80;102232.63;1777372;79;20986;-70
2021/10/06 02:06:38;;;;;;;21.82;6.95;;;;;;;12.49;69.84;102209.34;1765581;78;21525;-69
2021/10/06 02:09:09;;;;;;;25.20;6.85;;;;;;;12.45;70.77;102234.50;1779149;78;21015;-68
2021/10/06 02:11:51;;;;;;;38.65;7.35;;;;;;;12.40;71.01;102198.30;1773654;79;21033;-68
2021/10/06 02:14:20;;;;;;;27.37;7.03;;;;;;;12.38;71.58;102212.23;1775413;80;21433;-69
2021/10/06 02:16:54;;;;;;;13.35;5.00;;;;;;;12.34;71.20;102208.28;1777204;78;21675;-69
2021/10/06 02:19:22;;;;;;;16.85;5.90;;;;;;;12.31;69.29;102218.19;1790748;78;21084;-70
2021/10/06 02:21:58;;;;;;;11.53;5.42;;;;;;;12.34;69.81;102252.66;1809083;77;21058;-68
2021/10/06 02:24:34;;;;;;;14.30;5.10;;;;;;;12.30;69.56;102197.59;1791327;79;21032;-69
2021/10/06 02:27:01;;;;;;;11.45;5.20;;;;;;;12.32;69.80;102201.13;1803714;78;21079;-80
2021/10/06 02:29:28;;;;;;;17.95;6.90;;;;;;;12.32;69.08;102215.92;1774298;78;20998;-83
2021/10/06 02:31:58;;;;;;;11.63;5.37;;;;;;;12.29;69.00;102214.64;1784028;80;21111;-81
2021/10/06 02:34:30;;;;;;;13.60;5.40;;;;;;;12.30;69.08;102209.69;1778418;80;20869;-82
2021/10/06 02:37:00;;;;;;;10.15;5.50;;;;;;;12.27;70.54;102244.71;1757545;80;20942;-83
2021/10/06 02:39:33;;;;;;;19.60;5.55;;;;;;;12.25;71.51;102209.34;1751584;81;46533;-82
2021/10/06 02:41:57;;;;;;;16.10;5.92;;;;;;;12.26;71.42;102216.02;1808274;79;21064;-81
2021/10/06 02:44:26;;;;;;;13.35;6.17;;;;;;;12.27;71.46;102228.58;1788513;78;20995;-84
2021/10/06 02:46:53;;;;;;;14.90;6.17;;;;;;;12.25;71.29;102249.67;1767011;80;21032;-83
2021/10/06 02:49:24;;;;;;;17.48;6.17;;;;;;;12.24;71.35;102217.84;1780143;78;20966;-84
2021/10/06 02:51:52;;;;;;;14.60;5.50;;;;;;;12.23;72.72;102253.72;1789380;79;21008;-81
2021/10/06 02:54:19;;;;;;;12.25;5.75;;;;;;;12.18;73.28;102226.04;1780493;80;20987;-82
2021/10/06 02:56:48;;;;;;;16.62;5.35;;;;;;;12.12;72.92;102234.22;1782001;78;21037;-83
2021/10/06 02:59:17;;;;;;;25.60;7.35;;;;;;;12.10;72.99;102217.23;1765872;78;21672;-81
2021/10/06 03:01:53;;;;;;;14.70;4.97;;;;;;;12.13;73.32;102244.06;1740560;80;21328;-80
2021/10/06 03:04:22;;;;;;;14.07;6.10;;;;;;;12.14;72.70;102228.36;1754601;79;20984;-82
2021/10/06 03:06:51;;;;;;;16.52;5.12;;;;;;;12.13;72.73;102236.00;1754219;80;21055;-81
2021/10/06 03:09:24;;;;;;;14.60;5.30;;;;;;;12.14;72.47;102252.55;1760710;80;21122;-80
2021/10/06 03:11:56;;;;;;;17.17;4.95;;;;;;;12.20;71.37;102239.00;1741079;81;21004;-84
2021/10/06 03:14:25;;;;;;;11.12;4.40;;;;;;;12.21;71.67;102239.90;1754743;80;21063;-81
2021/10/06 03:16:56;;;;;;;16.90;5.00;;;;;;;12.23;71.05;102245.66;1752725;80;21469;-81
2021/10/06 03:19:27;;;;;;;23.95;6.90;;;;;;;12.26;70.70;102239.34;1746739;81;20968;-84
2021/10/06 03:21:54;;;;;;;11.33;4.58;;;;;;;12.25;70.35;102241.13;1751756;80;21123;-83
2021/10/06 03:24:21;;;;;;;19.95;4.92;;;;;;;12.28;68.87;102263.97;1761473;79;21619;-84
2021/10/06 03:26:53;;;;;;;26.17;5.75;;;;;;;12.27;68.95;102242.02;1755445;80;20960;-80
2021/10/06 03:29:28;;;;;;;12.35;4.78;;;;;;;12.27;69.33;102254.56;1776209;79;21023;-82
2021/10/06 03:31:55;;;;;;;11.30;4.55;;;;;;;12.27;68.96;102255.47;1771141;79;20917;-83
2021/10/06 03:34:22;;;;;;;18.42;4.70;;;;;;;12.28;69.38;102253.65;1778977;79;21798;-82
2021/10/06 03:36:51;;;;;;;12.88;5.10;;;;;;;12.30;68.84;102239.27;1770076;80;21012;-82
2021/10/06 03:39:18;;;;;;;15.93;4.95;;;;;;;12.31;69.43;102241.05;1740301;80;21497;-80
2021/10/06 03:41:45;;;;;;;15.63;5.05;;;;;;;12.32;68.99;102246.85;1755982;80;20997;-80
2021/10/06 03:44:12;;;;;;;25.72;5.28;;;;;;;12.34;68.54;102231.14;1794555;78;21470;-82
2021/10/06 03:46:42;;;;;;;12.82;4.40;;;;;;;12.34;68.41;102243.24;1779004;79;21958;-82
2021/10/06 03:49:09;;;;;;;12.13;4.45;;;;;;;12.34;68.13;102263.42;1779117;78;20997;-83
2021/10/06 03:51:36;;;;;;;18.57;5.00;;;;;;;12.32;68.27;102236.09;1774015;80;21072;-83
2021/10/06 03:54:07;;;;;;;14.30;4.95;;;;;;;12.33;67.82;102263.86;1770354;79;21000;-82
2021/10/06 03:56:41;;;;;;;7.72;4.60;;;;;;;12.40;68.18;102237.74;1780648;79;21492;-84
2021/10/06 03:59:10;;;;;;;26.60;4.92;;;;;;;12.44;66.70;102250.21;1792293;77;20969;-82
2021/10/06 04:01:37;;;;;;;12.28;4.70;;;;;;;12.48;66.49;102249.23;1820910;77;20802;-83
2021/10/06 04:04:04;;;;;;;17.77;4.72;;;;;;;12.50;67.19;102246.52;1814592;77;21040;-83
2021/10/06 04:06:32;;;;;;;12.68;4.67;;;;;;;12.51;67.30;102262.66;1806648;79;21079;-82
2021/10/06 04:08:59;;;;;;;12.40;5.30;;;;;;;12.52;67.09;102256.36;1810401;79;20901;-83
2021/10/06 04:11:25;;;;;;;15.28;4.95;;;;;;;12.52;66.98;102257.70;1816396;79;21091;-81
2021/10/06 04:13:56;;;;;;;9.78;4.10;;;;;;;12.54;66.93;102261.24;1816726;78;20941;-84
2021/10/06 04:16:23;;;;;;;15.53;4.45;;;;;;;12.59;66.30;102249.92;1809292;78;20973;-83
2021/10/06 04:18:50;;;;;;;18.27;4.47;;;;;;;12.58;65.24;102258.92;1808974;77;20976;-84
2021/10/06 04:21:20;;;;;;;10.95;4.10;;;;;;;12.58;64.85;102252.19;1831106;77;21108;-81
2021/10/06 04:23:52;;;;;;;12.98;5.37;;;;;;;12.65;65.51;102247.58;1804222;78;21107;-84
2021/10/06 04:26:24;;;;;;;15.08;4.47;;;;;;;12.67;65.42;102282.52;1807481;77;21055;-82
2021/10/06 04:28:52;;;;;;;10.30;4.80;;;;;;;12.67;64.94;102252.91;1762412;79;20928;-81
2021/10/06 04:31:20;;;;;;;12.35;4.40;;;;;;;12.67;65.47;102254.27;1779356;78;21532;-81
2021/10/06 04:33:47;;;;;;;11.78;4.50;;;;;;;12.65;64.80;102257.44;1790812;77;21036;-82
2021/10/06 04:36:15;;;;;;;14.33;4.45;;;;;;;12.64;64.58;102256.58;1827248;77;21120;-82
2021/10/06 04:38:46;;;;;;;7.28;3.98;;;;;;;12.68;64.91;102246.61;1805529;78;20992;-80
2021/10/06 04:41:20;;;;;;;19.02;4.30;;;;;;;12.75;64.06;102273.86;1771970;80;20893;-83
2021/10/06 04:43:58;;;;;;;11.83;4.65;;;;;;;12.75;63.85;102249.63;1777798;79;21097;-80
2021/10/06 04:46:29;;;;;;;15.30;4.58;;;;;;;12.75;64.23;102260.40;1772488;78;21105;-81
2021/10/06 04:48:57;;;;;;;25.20;4.28;;;;;;;12.77;63.84;102263.94;1750586;80;21316;-82
2021/10/06 04:51:24;;;;;;;7.53;4.65;;;;;;;12.75;63.48;102286.84;1824707;77;20967;-80
2021/10/06 04:53:54;;;;;;;12.28;4.33;;;;;;;12.78;63.08;102259.43;1820948;77;21024;-83
2021/10/06 04:56:28;;;;;;;10.40;4.50;;;;;;;12.80;62.90;102246.38;1829512;77;21011;-83
2021/10/06 04:59:02;;;;;;;10.15;4.67;;;;;;;12.80;64.43;102262.53;1791576;77;21011;-81
2021/10/06 05:01:29;;;;;;;9.63;4.42;;;;;;;12.82;65.54;102252.62;1783328;79;21095;-83
2021/10/06 05:03:59;;;;;;;12.25;4.70;;;;;;;12.83;64.71;102231.98;1786407;79;20959;-82
2021/10/06 05:06:25;;;;;;;9.53;5.00;;;;;;;12.84;64.80;102248.09;1780552;78;20969;-81
2021/10/06 05:08:54;;;;;;;17.77;4.60;;;;;;;12.86;64.25;102262.88;1788143;77;21489;-86
2021/10/06 05:11:22;;;;;;;14.05;4.60;;;;;;;12.87;64.45;102239.94;1800558;78;20911;-81
2021/10/06 05:13:58;;;;;;;10.00;4.37;;;;;;;12.93;63.71;102242.07;1789195;80;21109;-82
2021/10/06 05:16:25;;;;;;;12.03;4.60;;;;;;;12.96;62.43;102229.44;1788033;77;21025;-84
2021/10/06 05:18:57;;;;;;;8.60;4.53;;;;;;;12.97;63.84;102253.23;1781877;78;21001;-81
2021/10/06 05:21:25;;;;;;;21.82;5.42;;;;;;;13.00;64.13;102269.31;1781714;78;20959;-82
2021/10/06 05:23:56;;;;;;;10.60;4.83;;;;;;;12.97;64.55;102247.84;1759841;78;20932;-83
2021/10/06 05:26:33;;;;;;;9.73;4.17;;;;;;;12.96;65.18;102248.77;1754553;80;21142;-82
2021/10/06 05:29:00;;;;;;;11.12;5.15;;;;;;;12.98;65.00;102235.67;1788466;79;20936;-83
2021/10/06 05:31:34;;;;;;;17.40;5.00;;;;;;;13.00;65.08;102239.70;1764016;80;21038;-80
2021/10/06 05:34:12;;;;;;;16.87;5.03;;;;;;;13.03;64.47;102247.70;1792132;80;20957;-82
2021/10/06 05:36:36;;;;;;;9.65;4.45;;;;;;;13.06;64.63;102266.48;1804184;77;20996;-83
2021/10/06 05:39:08;;;;;;;15.48;4.75;;;;;;;13.04;64.46;102253.52;1807828;78;20961;-80
2021/10/06 05:41:35;;;;;;;23.80;4.58;;;;;;;13.04;64.48;102236.02;1794008;79;20995;-84
2021/10/06 05:44:10;;;;;;;13.83;4.72;;;;;;;13.07;65.20;102273.64;1793458;79;21017;-81
2021/10/06 05:46:51;;;;;;;;;;;;;;;13.16;65.32;102249.67;1831057;77;20913;-83
2021/10/06 05:52:00;;;;;;;16.85;4.85;;;;;;;13.25;63.47;102251.27;1807010;77;21013;-83
2021/10/06 05:54:28;;;;;;;16.73;4.60;;;;;;;13.25;63.51;102253.49;1806569;77;21059;-83
2021/10/06 05:56:54;;;;;;;13.95;4.95;;;;;;;13.30;63.83;102261.48;1786368;78;21051;-82
2021/10/06 05:59:22;;;;;;;20.23;5.22;;;;;;;13.38;64.72;102254.13;1804789;77;21012;-84
2021/10/06 06:01:51;;;;;;;19.15;5.22;;;;;;;13.44;63.11;102257.16;1812535;77;21075;-84
2021/10/06 06:08:21;;;;;;;15.65;4.70;;;;;;;13.67;61.90;102251.69;1820614;77;21739;-85
2021/10/06 06:10:49;;;;;;;13.80;4.67;;;;;;;13.81;61.75;102264.83;1790662;78;21247;-73
2021/10/06 06:23:43;;;;;;;13.85;4.20;;;;;;;13.81;61.25;102245.95;1798628;78;21094;-74
2021/10/06 06:26:10;;;;;;;13.95;5.25;;;;;;;13.86;60.92;102275.92;1797747;78;21051;-72
2021/10/06 06:28:38;;;;;;;14.43;4.40;;;;;;;13.86;59.95;102246.75;1816445;77;21694;-74
2021/10/06 06:31:10;;;;;;;15.15;4.58;;;;;;;13.87;60.86;102251.22;1818909;77;21516;-74
2021/10/06 06:33:43;;;;;;;21.73;5.17;;;;;;;13.93;61.84;102259.14;1760281;79;21173;-74
2021/10/06 06:36:13;;;;;;;10.53;4.50;;;;;;;13.96;61.97;102250.10;1765848;80;21043;-76
2021/10/06 06:38:40;;;;;;;15.43;4.10;;;;;;;13.99;60.50;102276.98;1819173;77;21008;-74
2021/10/06 06:41:10;;;;;;;14.73;4.15;;;;;;;13.94;60.88;102252.82;1818408;77;21043;-73
2021/10/06 06:43:39;;;;;;;16.55;4.28;;;;;;;13.88;61.57;102315.00;1815663;77;21100;-74
2021/10/06 06:46:25;;;;;;;16.10;4.35;;;;;;;13.84;61.39;102285.86;1818833;77;21075;-73
2021/10/06 06:48:52;;;;;;;13.48;4.05;;;;;;;13.81;60.98;102303.47;1819010;77;21024;-73
2021/10/06 06:51:19;;;;;;;14.50;4.20;;;;;;;13.81;61.17;102302.56;1818316;77;21130;-74
2021/10/06 06:53:46;;;;;;;20.10;4.53;;;;;;;13.85;60.79;102257.98;1819731;77;21560;-74
2021/10/06 06:56:15;;;;;;;19.45;4.47;;;;;;;13.87;60.35;102274.13;1806194;77;21970;-73
2021/10/06 06:59:09;;;;;;;17.85;4.65;;;;;;;13.88;59.96;102263.77;1784773;78;21376;-74
2021/10/06 07:01:37;;;;;;;20.60;4.12;;;;;;;13.94;59.82;102271.70;1817800;77;21028;-74
2021/10/06 07:04:04;;;;;;;11.90;4.28;;;;;;;13.97;59.27;102272.97;1792174;78;21388;-73
2021/10/06 07:09:22;;;;;;;20.05;4.67;;;;;;;13.85;60.21;102311.91;1819692;77;21082;-75
2021/10/06 07:11:45;;;;;;;17.60;3.98;;;;;;;13.86;59.49;102280.45;1793095;78;20983;-76
2021/10/06 07:14:13;;;;;;;14.33;4.20;;;;;;;13.88;59.12;102265.12;1774823;78;21075;-75
2021/10/06 07:16:41;;;;;;;17.75;4.05;;;;;;;13.86;58.21;102291.23;1818853;78;21091;-75
2021/10/06 07:19:10;;;;;;;15.32;4.55;;;;;;;13.86;58.79;102275.06;1822760;77;20983;-75
2021/10/06 07:21:46;;;;;;;11.88;3.83;;;;;;;13.89;58.98;102292.02;1822628;77;21118;-75
2021/10/06 07:24:16;;;;;;;19.15;3.75;;;;;;;13.95;58.38;102276.64;1822874;77;21618;-75
2021/10/06 07:27:03;;;;;;;8.73;3.22;;;;;;;13.97;57.72;102277.02;1791972;78;21527;-75
2021/10/06 07:29:34;;;;;;;10.58;3.52;;;;;;;14.03;58.62;102294.86;1798974;78;21102;-74
2021/10/06 07:35:13;;;;;;;11.05;3.33;;;;;;;14.07;58.32;102294.33;1814275;77;21132;-70
2021/10/06 07:37:38;;;;;;;6.90;2.90;;;;;;;14.00;58.92;102285.02;1811566;77;21149;-70
2021/10/06 07:40:09;;;;;;;11.28;4.08;;;;;;;13.97;58.84;102301.28;1813215;77;21096;-72
2021/10/06 07:42:36;;;;;;;14.25;3.72;;;;;;;13.96;58.94;102291.42;1820925;77;21112;-70
2021/10/06 07:45:04;;;;;;;9.15;3.80;;;;;;;13.96;57.68;102312.13;1811901;77;21062;-71
2021/10/06 07:47:34;;;;;;;15.40;3.65;;;;;;;13.88;57.60;102290.73;1777011;78;21758;-71
2021/10/06 07:50:01;;;;;;;15.35;4.12;;;;;;;13.85;58.31;102300.25;1784021;79;21054;-72
2021/10/06 07:52:30;;;;;;;18.02;4.10;;;;;;;13.84;59.23;102306.09;1756117;80;21011;-70
2021/10/06 07:54:57;;;;;;;12.73;3.70;;;;;;;13.80;59.07;102327.75;1791152;78;21131;-71
2021/10/06 07:57:24;;;;;;;11.57;3.60;;;;;;;13.74;59.07;102287.89;1789976;78;21482;-73
2021/10/06 08:02:23;;;;;;;9.20;3.67;;;;;;;13.82;59.03;102293.59;1824062;77;21035;-70
2021/10/06 08:04:52;;;;;;;11.80;3.58;;;;;;;13.83;59.79;102289.48;1823069;77;21090;-69
2021/10/06 08:07:19;;;;;;;9.73;3.45;;;;;;;13.86;60.10;102292.58;1822453;77;21102;-70
2021/10/06 08:09:46;;;;;;;13.45;3.77;;;;;;;13.94;58.75;102304.06;1822149;77;21039;-70
2021/10/06 08:12:13;;;;;;;10.40;3.60;;;;;;;13.94;57.96;102294.62;1814404;77;21635;-70
2021/10/06 08:14:40;;;;;;;12.55;3.70;;;;;;;13.87;58.05;102292.53;1823578;78;21035;-72
2021/10/06 08:19:46;;;;;;;11.03;3.60;;;;;;;13.96;58.88;102289.20;1815322;77;21094;-71
2021/10/06 08:22:13;;;;;;;11.80;3.65;;;;;;;13.99;58.63;102316.95;1816822;77;21106;-69
2021/10/06 08:27:17;;;;;;;;;;;;;;;13.93;58.15;102305.46;1823258;77;21062;-67
2021/10/06 08:29:47;;;;;;;10.80;3.25;;;;;;;13.89;58.29;102308.68;1824128;77;20196;-71
2021/10/06 08:32:14;;;;;;;16.60;4.78;;;;;;;13.83;57.14;102310.19;1823879;77;20971;-69
2021/10/06 08:34:41;;;;;;;16.70;4.28;;;;;;;13.78;57.61;102308.03;1823437;77;21063;-71
2021/10/06 08:37:08;;;;;;;15.65;4.10;;;;;;;13.78;58.62;102296.80;1820153;77;21122;-70
2021/10/06 08:39:35;;;;;;;11.90;3.70;;;;;;;13.81;58.17;102282.34;1814343;77;21067;-68
2021/10/06 08:44:33;;;;;;;7.10;3.40;;;;;;;13.85;59.16;102285.42;1814097;77;21046;-70
2021/10/06 08:47:00;;;;;;;13.68;3.60;;;;;;;13.90;57.94;102287.05;1824265;77;21059;-68
2021/10/06 08:49:28;;;;;;;15.15;4.20;;;;;;;13.89;57.72;102281.72;1823199;77;22304;-72
2021/10/06 08:51:55;;;;;;;33.45;4.62;;;;;;;13.91;57.28;102294.70;1824774;77;21552;-68
2021/10/06 08:54:25;;;;;;;12.75;3.80;;;;;;;13.91;57.48;102274.47;1824044;77;21094;-69
2021/10/06 08:56:52;;;;;;;11.00;3.20;;;;;;;13.97;58.06;102281.05;1824235;77;22218;-65
2021/10/06 08:59:25;;;;;;;12.95;3.62;;;;;;;14.03;56.92;102293.51;1823460;77;21738;-66
2021/10/06 09:02:03;;;;;;;11.75;3.00;;;;;;;13.97;57.36;102283.75;1813550;77;21014;-70
2021/10/06 09:04:34;;;;;;;10.43;2.90;;;;;;;13.99;55.57;102276.98;1785794;78;21126;-69
2021/10/06 09:07:05;;;;;;;11.30;3.10;;;;;;;13.99;54.65;102273.81;1820882;77;21046;-70
2021/10/06 09:12:15;;;;;;;11.75;3.22;;;;;;;13.98;53.65;102277.44;1785886;80;20934;-68
2021/10/06 09:14:46;;;;;;;12.75;3.05;;;;;;;13.94;52.26;102300.01;1760456;79;21122;-68
2021/10/06 09:17:16;;;;;;;21.05;3.10;;;;;;;13.93;52.43;102299.59;1752424;80;20997;-67
2021/10/06 09:19:53;;;;;;;8.78;3.00;;;;;;;13.90;53.10;102272.23;1806260;79;21464;-68
2021/10/06 09:25:06;;;;;;;10.88;3.40;;;;;;;13.95;54.43;102269.42;1789491;78;21713;-67
2021/10/06 09:27:38;;;;;;;13.88;3.05;;;;;;;14.03;53.64;102294.37;1788430;78;21050;-69
2021/10/06 09:30:27;;;;;;;17.32;3.17;;;;;;;14.08;52.77;102265.08;1777552;78;21081;-69
2021/10/06 09:32:54;;;;;;;18.23;3.87;;;;;;;14.10;52.44;102271.32;1784487;78;21004;-68
2021/10/06 09:35:23;;;;;;;11.18;4.03;;;;;;;14.12;52.69;102255.50;1793598;78;21126;-70
2021/10/06 09:37:54;;;;;;;20.17;3.10;;;;;;;14.18;50.84;102283.69;1790278;78;21128;-68
2021/10/06 09:40:23;;;;;;;15.10;3.17;;;;;;;14.16;50.65;102267.11;1794892;78;21779;-70
2021/10/06 09:42:53;;;;;;;9.08;2.83;;;;;;;14.12;50.78;102254.63;1799506;78;21433;-68
2021/10/06 09:45:32;;;;;;;16.05;3.45;;;;;;;14.06;51.31;102261.55;1791436;79;21564;-67
2021/10/06 09:48:06;;;;;;;11.35;2.92;;;;;;;14.03;51.19;102268.75;1754343;80;21037;-68
2021/10/06 09:50:37;;;;;;;15.08;3.12;;;;;;;14.02;50.81;102295.78;1789392;78;21028;-69
2021/10/06 09:53:12;;;;;;;13.93;2.87;;;;;;;13.98;51.14;102278.78;1793562;78;21125;-69
2021/10/06 09:55:41;;;;;;;15.13;3.05;;;;;;;14.00;51.63;102293.11;1783692;78;21028;-69
2021/10/06 09:58:09;;;;;;;10.88;2.80;;;;;;;14.00;50.63;102302.55;1786596;78;21099;-69
2021/10/06 10:05:39;;;;;;;14.07;3.40;;;;;;;13.90;53.10;102274.92;1785121;78;22083;-70
2021/10/06 10:08:07;;;;;;;10.90;2.80;;;;;;;13.98;53.23;102272.04;1778798;78;21327;-69
2021/10/06 10:10:35;;;;;;;16.45;3.10;;;;;;;13.98;52.64;102267.99;1794727;78;21288;-71
2021/10/06 10:13:04;;;;;;;9.65;3.00;;;;;;;13.98;52.61;102282.83;1791131;78;21049;-70
2021/10/06 10:15:32;;;;;;;9.35;3.27;;;;;;;14.01;52.38;102276.00;1795484;78;21456;-70
2021/10/06 10:18:06;;;;;;;7.42;2.77;;;;;;;14.01;51.83;102295.36;1798484;78;21571;-71
2021/10/06 10:20:37;;;;;;;8.05;2.92;;;;;;;13.96;51.58;102287.37;1795098;78;21028;-69
2021/10/06 10:23:04;;;;;;;17.73;3.42;;;;;;;13.93;51.34;102278.02;1784918;79;21055;-70
2021/10/06 10:25:43;;;;;;;11.05;2.65;;;;;;;13.94;51.22;102272.17;1791627;78;20976;-68
2021/10/06 10:28:20;;;;;;;6.87;2.67;;;;;;;13.94;50.57;102269.00;1782819;79;21036;-67
2021/10/06 10:31:00;;;;;;;6.90;2.50;;;;;;;13.91;50.84;102277.17;1786108;79;21829;-71
2021/10/06 10:33:56;;;;;;;11.30;3.70;;;;;;;13.90;50.57;102287.53;1787258;78;21063;-71
2021/10/06 10:36:40;;;;;;;11.55;3.12;;;;;;;13.83;51.36;102265.70;1785193;78;21299;-73
2021/10/06 10:39:49;;;;;;;15.18;4.12;;;;;;;13.82;50.78;102282.80;1783847;78;21519;-72
2021/10/06 10:42:25;;;;;;;12.25;2.70;;;;;;;13.80;50.52;102263.05;1780860;78;21137;-70
2021/10/06 10:44:52;;;;;;;17.12;2.87;;;;;;;13.81;50.38;102281.00;1776655;79;21116;-70
2021/10/06 10:47:19;;;;;;;15.23;3.12;;;;;;;13.80;50.99;102264.40;1809084;78;21076;-69
2021/10/06 10:52:48;;;;;;;14.03;3.50;;;;;;;13.82;50.31;102265.28;1782828;78;21015;-68
2021/10/06 10:55:16;;;;;;;13.62;3.33;;;;;;;13.81;48.96;102287.73;1759694;80;21131;-70
2021/10/06 11:02:50;;;;;;;15.25;3.60;;;;;;;13.68;51.42;102254.36;1806495;77;21575;-70
2021/10/06 11:05:18;;;;;;;10.58;3.00;;;;;;;13.75;50.42;102253.27;1806375;77;21186;-71
2021/10/06 11:07:50;;;;;;;12.93;3.77;;;;;;;13.80;50.48;102272.48;1820810;77;21108;-69
2021/10/06 11:10:18;;;;;;;12.13;3.55;;;;;;;13.82;50.53;102263.94;1796017;78;21782;-72
2021/10/06 11:13:13;;;;;;;23.40;3.60;;;;;;;13.79;49.32;102250.50;1800239;78;21035;-69
2021/10/06 11:18:25;;;;;;;20.62;4.08;;;;;;;13.92;49.70;102256.47;1804126;78;21167;-71
2021/10/06 11:20:58;;;;;;;15.58;3.95;;;;;;;13.92;50.50;102251.98;1804748;78;22065;-71
2021/10/06 11:23:36;;;;;;;;;;;;;;;13.95;50.31;102254.59;1809190;78;21036;-70
2021/10/06 11:26:07;;;;;;;12.85;3.67;;;;;;;13.94;48.21;102260.05;1798490;78;20187;-72
2021/10/06 11:28:41;;;;;;;14.28;3.90;;;;;;;13.87;49.32;102241.78;1799133;78;21012;-71
2021/10/06 11:31:07;;;;;;;10.28;3.77;;;;;;;13.80;49.92;102240.14;1828892;77;21059;-71
2021/10/06 11:33:35;;;;;;;17.98;3.10;;;;;;;13.74;49.68;102269.02;1795751;78;21069;-69
2021/10/06 11:36:24;;;;;;;21.48;3.35;;;;;;;13.72;49.94;102253.36;1823302;77;21560;-70
2021/10/06 11:39:19;;;;;;;16.90;3.12;;;;;;;13.71;49.26;102240.80;1824712;77;21701;-69
2021/10/06 11:41:51;;;;;;;17.27;2.90;;;;;;;13.77;48.51;102233.48;1829312;77;21515;-72
2021/10/06 11:44:30;;;;;;;21.20;3.27;;;;;;;13.80;48.06;102244.19;1802209;78;21065;-70
2021/10/06 11:47:16;;;;;;;30.95;3.25;;;;;;;13.80;48.83;102237.00;1821286;77;21067;-70
2021/10/06 11:52:19;;;;;;;20.05;4.42;;;;;;;13.79;50.06;102253.19;1792157;78;20962;-69
2021/10/06 11:54:47;;;;;;;9.88;3.00;;;;;;;13.77;49.34;102237.52;1818564;77;20996;-71
2021/10/06 11:57:17;;;;;;;18.12;2.85;;;;;;;13.79;48.79;102238.37;1793278;78;21087;-68
2021/10/06 11:59:45;;;;;;;26.75;3.30;;;;;;;13.78;48.08;102272.99;1783339;78;21068;-70
2021/10/06 12:02:14;;;;;;;21.27;3.62;;;;;;;13.75;48.40;102255.97;1815795;78;22293;-70
2021/10/06 12:04:43;;;;;;;22.05;3.90;;;;;;;13.73;48.49;102224.61;1815716;77;21074;-70
2021/10/06 12:07:12;;;;;;;22.87;3.17;;;;;;;13.73;49.35;102238.95;1809011;77;21052;-69
2021/10/06 12:09:51;;;;;;;12.40;3.67;;;;;;;13.79;49.42;102232.53;1817960;77;21048;-69
2021/10/06 12:12:25;;;;;;;21.97;4.67;;;;;;;13.81;46.22;102245.95;1780675;78;21110;-69
2021/10/06 12:15:11;;;;;;;21.35;3.02;;;;;;;13.79;47.09;102223.55;1824267;77;21168;-69
2021/10/06 12:25:40;;;;;;;11.75;2.85;;;;;;;13.85;49.32;102220.72;1822123;77;21086;-69
2021/10/06 12:28:11;;;;;;;18.87;3.05;;;;;;;13.85;47.52;102235.55;1821098;77;20952;-70
2021/10/06 12:30:38;;;;;;;20.80;3.35;;;;;;;13.75;46.57;102231.71;1799649;77;21693;-68
2021/10/06 12:33:15;;;;;;;21.65;3.10;;;;;;;13.70;47.65;102244.42;1786276;78;21688;-69
2021/10/06 12:35:45;;;;;;;17.60;3.87;;;;;;;13.69;47.70;102222.44;1777361;78;21070;-70
2021/10/06 12:40:52;;;;;;;24.00;4.58;;;;;;;13.69;48.05;102218.39;1785400;78;21888;-69
2021/10/06 12:43:25;;;;;;;22.87;5.00;;;;;;;13.70;48.71;102227.34;1780787;78;21110;-69